Time;durP1;ratioP1;P1;durP2;ratioP2;P2;SDS_P1;SDS_P2;PMS_P1;PMS_P2;Temp;Humidity;BMP_temperature;BMP_pressure;BME280_temperature;BME280_humidity;BME280_pressure;Samples;Min_cycle;Max_cycle;Signal;HPM_P1;HPM_P2
2021/11/19 00:01:06;;;;;;;11.73;6.33;;;10.40;99.90;;;;;;4917116;29;20506;-49
2021/11/19 00:03:33;;;;;;;13.20;6.93;;;10.40;99.90;;;;;;4921007;23;20487;-51
2021/11/19 00:05:59;;;;;;;9.87;6.07;;;10.40;99.90;;;;;;4898488;29;20432;-51
2021/11/19 00:08:27;;;;;;;9.63;6.30;;;10.40;99.90;;;;;;4906984;23;20455;-54
2021/11/19 00:10:58;;;;;;;14.60;6.77;;;10.40;99.90;;;;;;4917047;29;20529;-52
2021/11/19 00:15:54;;;;;;;8.10;6.20;;;10.40;99.90;;;;;;4878025;29;20468;-52
2021/11/19 00:18:21;;;;;;;11.80;6.53;;;10.40;99.90;;;;;;4879099;29;20453;-49
2021/11/19 00:20:48;;;;;;;19.73;7.60;;;10.40;99.90;;;;;;4902576;23;20520;-53
2021/11/19 00:23:15;;;;;;;11.00;6.83;;;10.40;99.90;;;;;;4897870;29;20519;-52
2021/11/19 00:25:42;;;;;;;17.73;7.47;;;10.40;99.90;;;;;;4933499;23;20538;-52
2021/11/19 00:28:09;;;;;;;11.17;7.20;;;10.40;99.90;;;;;;4914940;29;20994;-52
2021/11/19 00:30:38;;;;;;;14.13;8.47;;;10.40;99.90;;;;;;4921878;23;20546;-55
2021/11/19 00:33:07;;;;;;;10.50;7.33;;;10.40;99.90;;;;;;4915796;29;20430;-52
2021/11/19 00:35:36;;;;;;;10.33;6.83;;;10.40;99.90;;;;;;4921868;23;20494;-53
2021/11/19 00:38:04;;;;;;;15.77;7.03;;;10.40;99.90;;;;;;4915700;29;20483;-52
2021/11/19 00:40:35;;;;;;;13.30;6.90;;;10.40;99.90;;;;;;4914439;23;20557;-53
2021/11/19 00:43:02;;;;;;;16.90;6.90;;;10.40;99.90;;;;;;4897645;29;20538;-48
2021/11/19 00:45:30;;;;;;;14.20;7.03;;;10.50;99.90;;;;;;4911633;23;20589;-49
2021/11/19 00:48:03;;;;;;;12.40;6.63;;;10.50;99.90;;;;;;4915911;29;20478;-50
2021/11/19 00:50:37;;;;;;;13.63;6.50;;;10.40;99.90;;;;;;4931766;23;20495;-50
2021/11/19 00:53:04;;;;;;;10.57;7.63;;;10.40;99.90;;;;;;4897539;29;20464;-54
2021/11/19 00:55:31;;;;;;;9.07;7.30;;;10.50;99.90;;;;;;4922356;23;20506;-54
2021/11/19 00:57:58;;;;;;;17.33;6.90;;;10.50;99.90;;;;;;4916025;29;20430;-52
2021/11/19 01:00:29;;;;;;;9.47;6.20;;;10.50;99.90;;;;;;4922210;23;20451;-54
2021/11/19 01:02:56;;;;;;;15.53;8.47;;;10.50;99.90;;;;;;4915196;29;20470;-52
2021/11/19 01:07:52;;;;;;;15.47;7.83;;;10.50;99.90;;;;;;4920837;23;20486;-48
2021/11/19 01:10:23;;;;;;;11.20;7.00;;;10.50;99.90;;;;;;4914972;29;20478;-47
2021/11/19 01:12:50;;;;;;;8.80;6.47;;;10.50;99.90;;;;;;4922531;23;20888;-50
2021/11/19 01:15:20;;;;;;;15.40;7.20;;;10.50;99.90;;;;;;4916209;29;20455;-49
2021/11/19 01:17:50;;;;;;;17.20;7.67;;;10.50;99.90;;;;;;4936916;23;20498;-52
2021/11/19 01:20:21;;;;;;;9.27;6.40;;;10.50;99.90;;;;;;4915660;29;20442;-51
2021/11/19 01:22:52;;;;;;;11.53;7.00;;;10.50;99.90;;;;;;4922223;23;20494;-54
2021/11/19 01:25:23;;;;;;;7.07;5.40;;;10.50;99.90;;;;;;4915395;29;20439;-49
2021/11/19 01:27:51;;;;;;;7.20;5.57;;;10.50;99.90;;;;;;4923149;23;20518;-51
2021/11/19 01:30:25;;;;;;;10.00;6.90;;;10.50;99.90;;;;;;4916344;29;20453;-56
2021/11/19 01:32:52;;;;;;;16.53;6.80;;;10.50;99.90;;;;;;4923143;23;20542;-55
2021/11/19 01:35:20;;;;;;;9.77;6.33;;;10.50;99.90;;;;;;4915652;29;20450;-53
2021/11/19 01:37:47;;;;;;;30.10;7.80;;;10.60;99.90;;;;;;4921763;23;20500;-52
2021/11/19 01:40:19;;;;;;;13.23;8.90;;;10.60;99.90;;;;;;4914629;29;20445;-53
2021/11/19 01:45:16;;;;;;;11.07;6.20;;;10.60;99.90;;;;;;4933481;23;20967;-52
2021/11/19 01:47:46;;;;;;;15.50;6.77;;;10.60;99.90;;;;;;4915149;29;20187;-50
2021/11/19 01:50:20;;;;;;;10.47;6.50;;;10.60;99.90;;;;;;4919523;23;20502;-52
2021/11/19 01:52:51;;;;;;;6.47;5.50;;;10.60;99.90;;;;;;4896605;29;20434;-52
2021/11/19 01:55:22;;;;;;;10.07;6.73;;;10.60;99.90;;;;;;4919794;23;20481;-51
2021/11/19 01:57:52;;;;;;;12.67;6.97;;;10.60;99.90;;;;;;4915907;29;20423;-53
2021/11/19 02:00:25;;;;;;;9.60;6.90;;;10.60;99.90;;;;;;4921538;23;20538;-53
2021/11/19 02:02:55;;;;;;;10.10;6.70;;;10.60;99.90;;;;;;4914890;29;20467;-52
2021/11/19 02:05:29;;;;;;;12.30;6.33;;;10.70;99.90;;;;;;4921273;23;20497;-52
2021/11/19 02:08:00;;;;;;;10.60;4.90;;;10.70;99.90;;;;;;4915451;29;20932;-51
2021/11/19 02:10:44;;;;;;;18.93;6.60;;;10.70;99.90;;;;;;4922422;23;20494;-51
2021/11/19 02:13:19;;;;;;;13.27;6.43;;;10.70;99.90;;;;;;4915283;29;20411;-52
2021/11/19 02:15:50;;;;;;;9.00;5.90;;;10.70;99.90;;;;;;4922233;23;20497;-53
2021/11/19 02:18:21;;;;;;;9.90;6.67;;;10.70;99.90;;;;;;4915119;29;20430;-52
2021/11/19 02:20:52;;;;;;;9.83;6.10;;;10.80;99.90;;;;;;4922128;23;20490;-54
2021/11/19 02:23:22;;;;;;;14.20;7.67;;;10.80;99.90;;;;;;4914844;29;20470;-53
2021/11/19 02:25:53;;;;;;;9.83;5.90;;;10.80;99.90;;;;;;4921575;23;20498;-54
2021/11/19 02:28:25;;;;;;;18.90;7.53;;;10.80;99.90;;;;;;4914491;29;20485;-55
2021/11/19 02:31:08;;;;;;;10.13;6.27;;;10.80;99.90;;;;;;4950866;23;20502;-55
2021/11/19 02:33:36;;;;;;;12.40;6.43;;;10.80;99.90;;;;;;4914786;29;20526;-52
2021/11/19 02:36:08;;;;;;;14.83;6.60;;;10.80;99.90;;;;;;4938915;23;20505;-53
2021/11/19 02:38:40;;;;;;;14.93;6.80;;;10.90;99.90;;;;;;4918106;29;20459;-55
2021/11/19 02:41:10;;;;;;;12.67;7.30;;;10.90;99.90;;;;;;4925462;23;20486;-52
2021/11/19 02:43:47;;;;;;;9.10;7.00;;;10.90;99.90;;;;;;4918447;29;20975;-52
2021/11/19 02:46:19;;;;;;;10.97;7.20;;;10.90;99.90;;;;;;4925551;23;20497;-51
2021/11/19 02:48:46;;;;;;;9.77;6.17;;;10.90;99.90;;;;;;4917556;29;20479;-49
2021/11/19 02:51:15;;;;;;;13.77;7.23;;;10.90;99.90;;;;;;4917423;23;20495;-54
2021/11/19 02:53:42;;;;;;;23.40;7.30;;;11.00;99.90;;;;;;4898653;29;20444;-55
2021/11/19 02:56:11;;;;;;;14.40;7.40;;;11.00;99.90;;;;;;4910067;23;20494;-53
2021/11/19 02:58:42;;;;;;;10.00;7.67;;;11.00;99.90;;;;;;4917535;29;20439;-54
2021/11/19 03:01:15;;;;;;;11.50;6.50;;;11.00;99.90;;;;;;4921622;23;20471;-56
2021/11/19 03:03:46;;;;;;;11.67;6.30;;;11.00;99.90;;;;;;4899099;29;20504;-54
2021/11/19 03:06:13;;;;;;;11.47;6.30;;;11.10;99.90;;;;;;4921045;23;20451;-52
2021/11/19 03:08:43;;;;;;;8.13;5.60;;;11.10;99.90;;;;;;4916355;29;20446;-53
2021/11/19 03:13:38;;;;;;;11.50;6.37;;;11.10;99.90;;;;;;4934363;23;20478;-54
2021/11/19 03:16:06;;;;;;;9.30;6.60;;;11.20;99.90;;;;;;4915788;29;20210;-49
2021/11/19 03:18:35;;;;;;;9.90;5.93;;;11.10;99.90;;;;;;4923075;23;20498;-54
2021/11/19 03:21:03;;;;;;;11.67;6.80;;;11.20;99.90;;;;;;4915338;29;20451;-55
2021/11/19 03:23:35;;;;;;;10.40;6.80;;;11.20;99.90;;;;;;4922279;23;20522;-54
2021/11/19 03:26:03;;;;;;;12.00;6.30;;;11.20;99.90;;;;;;4916560;29;20527;-53
2021/11/19 03:28:31;;;;;;;6.47;5.83;;;11.20;99.90;;;;;;4922375;23;20494;-54
2021/11/19 03:31:01;;;;;;;13.43;7.53;;;11.20;99.90;;;;;;4915806;29;20521;-51
2021/11/19 03:33:31;;;;;;;10.50;5.20;;;11.20;99.90;;;;;;4922431;23;20506;-50
2021/11/19 03:35:59;;;;;;;12.50;6.80;;;11.20;99.90;;;;;;4915086;29;20455;-51
2021/11/19 03:38:28;;;;;;;12.13;6.90;;;11.20;99.90;;;;;;4916533;29;20863;-52
2021/11/19 03:40:56;;;;;;;17.20;7.33;;;11.20;99.90;;;;;;4915404;29;20511;-53
2021/11/19 03:43:26;;;;;;;8.50;5.60;;;11.20;99.90;;;;;;4915271;29;20494;-54
2021/11/19 03:45:59;;;;;;;11.43;6.50;;;11.20;99.90;;;;;;4914442;29;20503;-50
2021/11/19 03:48:28;;;;;;;8.83;6.23;;;11.30;99.90;;;;;;4915989;29;20439;-53
2021/11/19 03:51:01;;;;;;;10.83;6.27;;;11.30;99.90;;;;;;4915781;29;20542;-50
2021/11/19 03:53:28;;;;;;;8.97;5.30;;;11.30;99.90;;;;;;4915932;29;20467;-50
2021/11/19 03:55:58;;;;;;;11.53;7.17;;;11.30;99.90;;;;;;4915468;29;20462;-50
2021/11/19 03:58:28;;;;;;;13.07;5.97;;;11.30;99.90;;;;;;4914900;29;20606;-51
2021/11/19 04:00:58;;;;;;;11.63;5.73;;;11.30;99.90;;;;;;4915434;29;20474;-51
2021/11/19 04:03:27;;;;;;;11.93;7.00;;;11.30;99.90;;;;;;4914382;29;20550;-53
2021/11/19 04:05:54;;;;;;;9.97;6.40;;;11.30;99.90;;;;;;4914003;29;20455;-52
2021/11/19 04:08:22;;;;;;;9.30;6.70;;;11.30;99.90;;;;;;4914009;29;20513;-55
2021/11/19 04:10:49;;;;;;;12.40;7.00;;;11.30;99.90;;;;;;4914830;29;20761;-55
2021/11/19 04:13:17;;;;;;;23.80;9.77;;;11.30;99.90;;;;;;4915267;29;20503;-55
2021/11/19 04:15:48;;;;;;;11.23;6.70;;;11.30;99.90;;;;;;4914509;29;20753;-53
2021/11/19 04:18:15;;;;;;;14.27;7.60;;;11.30;99.90;;;;;;4913891;29;20435;-53
2021/11/19 04:20:44;;;;;;;10.43;6.63;;;11.30;99.90;;;;;;4914823;29;20454;-50
2021/11/19 04:23:11;;;;;;;11.70;7.73;;;11.20;99.90;;;;;;4915343;29;20446;-54
2021/11/19 04:25:38;;;;;;;15.40;8.30;;;11.20;99.90;;;;;;4915061;29;20490;-55
2021/11/19 04:28:08;;;;;;;10.10;5.77;;;11.20;99.90;;;;;;4916219;29;20480;-52
2021/11/19 04:30:38;;;;;;;8.97;6.10;;;11.10;99.90;;;;;;4915652;29;20530;-54
2021/11/19 04:33:07;;;;;;;12.63;8.47;;;11.10;99.90;;;;;;4915751;29;20482;-53
2021/11/19 04:35:35;;;;;;;10.13;5.80;;;11.00;99.90;;;;;;4915009;29;20470;-55
2021/11/19 04:38:04;;;;;;;13.33;7.63;;;11.00;99.90;;;;;;4915230;29;20479;-52
2021/11/19 04:40:32;;;;;;;15.80;9.23;;;11.00;99.90;;;;;;4914891;29;20457;-53
2021/11/19 04:42:59;;;;;;;13.03;7.97;;;11.00;99.90;;;;;;4915624;29;20446;-55
2021/11/19 04:45:29;;;;;;;13.63;8.30;;;11.00;99.90;;;;;;4914731;29;20494;-54
2021/11/19 04:47:57;;;;;;;13.93;7.53;;;11.00;99.90;;;;;;4914721;29;20532;-56
2021/11/19 04:50:27;;;;;;;12.07;7.47;;;11.00;99.90;;;;;;4914520;29;20517;-55
2021/11/19 04:52:56;;;;;;;14.23;8.00;;;11.00;99.90;;;;;;4914669;29;20470;-55
2021/11/19 04:55:26;;;;;;;16.17;7.33;;;11.00;99.90;;;;;;4914661;29;20446;-55
2021/11/19 04:57:53;;;;;;;16.10;10.23;;;11.00;99.90;;;;;;4914208;29;20471;-53
2021/11/19 05:00:29;;;;;;;17.40;9.00;;;11.00;99.90;;;;;;4914634;29;20442;-49
2021/11/19 05:02:56;;;;;;;14.53;9.13;;;11.00;99.90;;;;;;4915203;29;20437;-50
2021/11/19 05:05:25;;;;;;;15.13;8.37;;;11.00;99.90;;;;;;4914853;29;20470;-54
2021/11/19 05:07:51;;;;;;;25.97;9.63;;;11.00;99.90;;;;;;4914050;29;20453;-53
2021/11/19 05:10:19;;;;;;;16.60;8.40;;;11.00;99.90;;;;;;4914107;29;20451;-53
2021/11/19 05:12:50;;;;;;;23.70;10.53;;;11.10;99.90;;;;;;4914679;29;20458;-55
2021/11/19 05:15:17;;;;;;;16.93;7.80;;;11.00;99.90;;;;;;4913551;29;20971;-54
2021/11/19 05:17:44;;;;;;;16.90;9.30;;;11.10;99.90;;;;;;4914626;29;20503;-51
2021/11/19 05:20:13;;;;;;;14.50;7.13;;;11.10;99.90;;;;;;4914758;29;20502;-52
2021/11/19 05:22:41;;;;;;;14.60;8.07;;;11.10;99.90;;;;;;4913654;29;20435;-56
2021/11/19 05:25:10;;;;;;;10.80;6.77;;;11.10;99.90;;;;;;4913858;29;20498;-53
2021/11/19 05:27:37;;;;;;;20.40;9.37;;;11.20;99.90;;;;;;4921277;23;20494;-55
2021/11/19 05:30:08;;;;;;;16.43;8.50;;;11.20;99.90;;;;;;4914575;29;20772;-55
2021/11/19 05:32:35;;;;;;;13.67;8.10;;;11.20;99.90;;;;;;4920941;23;20502;-54
2021/11/19 05:35:02;;;;;;;13.40;8.03;;;11.20;99.90;;;;;;4913981;29;20473;-52
2021/11/19 05:37:29;;;;;;;14.33;8.30;;;11.20;99.90;;;;;;4913807;23;20604;-52
2021/11/19 05:39:56;;;;;;;15.53;8.17;;;11.20;99.90;;;;;;4894911;29;20515;-51
2021/11/19 05:42:22;;;;;;;17.50;7.87;;;11.30;99.90;;;;;;4901284;23;20498;-50
2021/11/19 05:44:49;;;;;;;14.40;9.00;;;11.30;99.90;;;;;;4893701;29;20486;-52
2021/11/19 05:47:17;;;;;;;21.50;10.17;;;11.30;99.90;;;;;;4917937;23;21621;-50
2021/11/19 05:49:44;;;;;;;12.57;8.10;;;11.40;99.90;;;;;;4912548;29;20463;-51
2021/11/19 05:52:15;;;;;;;14.60;6.70;;;11.40;99.90;;;;;;4920267;23;20506;-53
2021/11/19 05:54:42;;;;;;;11.70;6.73;;;11.40;99.90;;;;;;4911599;29;20458;-54
2021/11/19 05:57:11;;;;;;;13.80;7.27;;;11.40;99.90;;;;;;4912551;29;20462;-51
2021/11/19 05:59:39;;;;;;;20.23;7.47;;;11.40;99.90;;;;;;4919205;23;20534;-54
2021/11/19 06:02:08;;;;;;;13.60;8.00;;;11.50;99.90;;;;;;4912637;29;20940;-56
2021/11/19 06:04:38;;;;;;;10.80;6.90;;;11.50;99.90;;;;;;4903815;23;20860;-50
2021/11/19 06:07:04;;;;;;;13.30;7.90;;;11.50;99.90;;;;;;4893614;29;20459;-54
2021/11/19 06:09:31;;;;;;;15.80;7.20;;;11.50;99.90;;;;;;4914824;23;20490;-56
2021/11/19 06:12:02;;;;;;;16.13;8.10;;;11.50;99.90;;;;;;4914893;29;20434;-50
2021/11/19 06:14:35;;;;;;;14.47;8.17;;;11.50;99.90;;;;;;4922150;23;20991;-51
2021/11/19 06:17:05;;;;;;;12.53;7.40;;;11.60;99.90;;;;;;4914657;29;20446;-55
2021/11/19 06:19:36;;;;;;;15.67;6.90;;;11.60;99.90;;;;;;4914676;23;20999;-55
2021/11/19 06:22:07;;;;;;;9.97;6.50;;;11.60;99.90;;;;;;4928520;23;20822;-55
2021/11/19 06:24:37;;;;;;;11.23;7.50;;;11.60;99.90;;;;;;4905038;29;20490;-53
2021/11/19 06:27:04;;;;;;;13.77;8.00;;;11.60;99.90;;;;;;4906700;29;20482;-49
2021/11/19 06:29:30;;;;;;;11.33;7.47;;;11.60;99.90;;;;;;4907621;29;20765;-51
2021/11/19 06:31:59;;;;;;;9.40;7.10;;;11.60;99.90;;;;;;4907869;29;20999;-55
2021/11/19 06:34:26;;;;;;;11.70;6.67;;;11.60;99.90;;;;;;4907048;29;20446;-53
2021/11/19 06:37:12;;;;;;;10.20;6.23;;;11.60;99.90;;;;;;4913613;23;20506;-53
2021/11/19 06:39:41;;;;;;;11.37;6.90;;;11.60;99.90;;;;;;4904996;29;20446;-52
2021/11/19 06:42:09;;;;;;;14.00;7.07;;;11.60;99.90;;;;;;4906969;29;20446;-53
2021/11/19 06:44:35;;;;;;;9.23;6.57;;;11.60;99.90;;;;;;4907240;29;20478;-52
2021/11/19 06:47:03;;;;;;;15.30;7.37;;;11.60;99.90;;;;;;4906882;29;20450;-53
2021/11/19 06:49:30;;;;;;;14.30;6.70;;;11.60;99.90;;;;;;4907094;29;20473;-49
2021/11/19 06:51:57;;;;;;;13.20;7.20;;;11.60;99.90;;;;;;4907142;29;20454;-53
2021/11/19 06:54:25;;;;;;;10.13;7.43;;;11.60;99.90;;;;;;4906448;29;20952;-50
2021/11/19 06:56:53;;;;;;;13.90;7.47;;;11.70;99.90;;;;;;4913899;23;20813;-52
2021/11/19 06:59:20;;;;;;;12.47;7.80;;;11.60;99.90;;;;;;4906946;29;20465;-53
2021/11/19 07:01:47;;;;;;;9.83;5.47;;;11.70;99.90;;;;;;4913296;23;20498;-50
2021/11/19 07:04:14;;;;;;;8.57;5.00;;;11.70;99.90;;;;;;4906925;29;20522;-48
2021/11/19 07:06:49;;;;;;;8.40;5.20;;;11.70;99.90;;;;;;4913067;23;20474;-51
2021/11/19 07:09:18;;;;;;;9.67;6.10;;;11.70;99.90;;;;;;4869406;29;20555;-52
2021/11/19 07:14:17;;;;;;;7.73;4.70;;;11.70;99.90;;;;;;4887908;29;20499;-53
2021/11/19 07:16:44;;;;;;;11.43;6.37;;;11.70;99.90;;;;;;4888246;29;20944;-50
2021/11/19 07:19:11;;;;;;;8.20;4.40;;;11.70;99.90;;;;;;4911187;23;20509;-50
2021/11/19 07:21:39;;;;;;;10.00;5.10;;;11.70;99.90;;;;;;4906062;29;20526;-54
2021/11/19 07:24:13;;;;;;;7.53;5.00;;;12.10;99.90;;;;;;4919537;23;20496;-50
2021/11/19 07:26:46;;;;;;;4.77;4.03;;;12.40;99.90;;;;;;4905715;29;20495;-49
2021/11/19 07:29:15;;;;;;;8.87;5.20;;;12.50;99.90;;;;;;4905994;29;20514;-47
2021/11/19 07:31:43;;;;;;;7.10;4.23;;;12.50;99.90;;;;;;4906744;29;20458;-53
2021/11/19 07:34:10;;;;;;;6.97;5.40;;;12.40;99.90;;;;;;4912971;23;20490;-48
2021/11/19 07:36:40;;;;;;;8.60;5.60;;;12.20;99.90;;;;;;4907038;29;20483;-51
2021/11/19 07:41:33;;;;;;;7.13;4.20;;;12.00;99.90;;;;;;4924440;23;20499;-49
2021/11/19 07:44:00;;;;;;;6.07;4.63;;;11.90;99.90;;;;;;4905236;29;20451;-50
2021/11/19 07:46:29;;;;;;;8.30;4.60;;;11.90;99.90;;;;;;4912062;23;20509;-49
2021/11/19 07:48:58;;;;;;;7.30;4.90;;;11.90;99.90;;;;;;4904149;29;20462;-51
2021/11/19 07:51:27;;;;;;;8.83;4.93;;;11.90;99.90;;;;;;4883458;23;21176;-51
2021/11/19 07:53:55;;;;;;;7.53;4.00;;;11.90;99.90;;;;;;4867900;29;20492;-53
2021/11/19 07:56:30;;;;;;;7.03;5.20;;;11.90;99.90;;;;;;4887541;23;20584;-50
2021/11/19 07:58:57;;;;;;;6.57;4.83;;;11.90;99.90;;;;;;4887362;29;20454;-46
2021/11/19 08:01:24;;;;;;;10.10;4.43;;;11.90;99.90;;;;;;4893735;23;20495;-49
2021/11/19 08:03:51;;;;;;;7.20;5.20;;;11.90;99.90;;;;;;4886533;29;20751;-45
2021/11/19 08:06:21;;;;;;;8.20;4.50;;;11.90;99.90;;;;;;4886591;29;20483;-54
2021/11/19 08:08:49;;;;;;;11.07;6.00;;;12.00;99.90;;;;;;4886959;29;20487;-53
2021/11/19 08:11:19;;;;;;;8.23;5.40;;;11.90;99.90;;;;;;4886389;29;20459;-51
2021/11/19 08:13:47;;;;;;;6.00;4.60;;;12.00;99.90;;;;;;4886380;29;20455;-46
2021/11/19 08:16:14;;;;;;;7.00;4.63;;;12.00;99.90;;;;;;4886538;29;20470;-49
2021/11/19 08:18:46;;;;;;;7.53;4.93;;;12.00;99.90;;;;;;4886126;29;20479;-49
2021/11/19 08:21:13;;;;;;;12.03;5.93;;;12.00;99.90;;;;;;4885927;29;20762;-47
2021/11/19 08:23:46;;;;;;;7.00;5.10;;;12.00;99.90;;;;;;4892350;23;20850;-51
2021/11/19 08:26:15;;;;;;;7.83;4.70;;;12.00;99.90;;;;;;4886267;29;20475;-51
2021/11/19 08:28:43;;;;;;;8.30;5.70;;;12.00;99.90;;;;;;4893587;23;20575;-49
2021/11/19 08:31:16;;;;;;;10.50;4.70;;;12.00;99.90;;;;;;4887403;29;20447;-53
2021/11/19 08:33:43;;;;;;;6.20;4.20;;;12.30;99.90;;;;;;4892787;23;20499;-52
2021/11/19 08:36:11;;;;;;;6.90;4.50;;;12.50;99.90;;;;;;4885594;29;20455;-53
2021/11/19 08:38:41;;;;;;;8.57;6.13;;;12.40;99.90;;;;;;4892987;23;20507;-54
2021/11/19 08:41:11;;;;;;;8.37;5.23;;;12.30;99.90;;;;;;4886258;29;20474;-53
2021/11/19 08:43:40;;;;;;;7.73;4.90;;;12.30;99.90;;;;;;4904631;29;20458;-54
2021/11/19 08:46:09;;;;;;;7.43;5.20;;;12.30;99.90;;;;;;4903911;29;20561;-49
2021/11/19 08:48:38;;;;;;;8.13;4.83;;;12.20;99.90;;;;;;4904433;29;20461;-50
2021/11/19 08:51:08;;;;;;;13.57;5.87;;;12.20;99.90;;;;;;4904221;29;20560;-50
2021/11/19 08:53:35;;;;;;;10.13;6.10;;;12.20;99.90;;;;;;4904516;29;20438;-51
2021/11/19 08:56:03;;;;;;;8.03;4.90;;;12.20;99.90;;;;;;4904254;29;20446;-52
2021/11/19 08:58:37;;;;;;;15.33;5.53;;;12.20;99.90;;;;;;4906193;23;20571;-53
2021/11/19 09:01:07;;;;;;;7.57;4.93;;;12.20;99.90;;;;;;4885124;29;20451;-52
2021/11/19 09:03:34;;;;;;;9.90;5.07;;;12.20;99.90;;;;;;4885226;29;20531;-50
2021/11/19 09:06:02;;;;;;;8.70;5.53;;;12.20;99.90;;;;;;4884791;29;20483;-54
2021/11/19 09:08:30;;;;;;;10.10;6.20;;;12.20;99.90;;;;;;4884950;29;20980;-52
2021/11/19 09:10:58;;;;;;;15.63;5.10;;;12.20;99.90;;;;;;4885186;29;20439;-53
2021/11/19 09:13:27;;;;;;;11.67;4.27;;;12.20;99.90;;;;;;4885319;29;20518;-49
2021/11/19 09:15:56;;;;;;;9.27;5.43;;;12.20;99.90;;;;;;4884575;29;20455;-52
2021/11/19 09:18:32;;;;;;;9.30;5.47;;;12.20;99.90;;;;;;4884652;29;20478;-54
2021/11/19 09:21:14;;;;;;;12.33;6.30;;;12.20;99.90;;;;;;4884448;29;20497;-50
2021/11/19 09:23:44;;;;;;;8.73;5.80;;;12.20;99.90;;;;;;4884651;29;20431;-47
2021/11/19 09:26:13;;;;;;;9.20;6.07;;;12.10;99.90;;;;;;4883660;29;20498;-47
2021/11/19 09:28:47;;;;;;;10.53;6.03;;;12.10;99.90;;;;;;4884626;29;20511;-50
2021/11/19 09:31:19;;;;;;;9.00;5.10;;;12.10;99.90;;;;;;4884036;29;20555;-52
2021/11/19 09:33:48;;;;;;;12.57;6.60;;;12.20;99.90;;;;;;4884818;29;20773;-53
2021/11/19 09:36:16;;;;;;;11.27;5.57;;;12.20;99.90;;;;;;4884716;29;20514;-54
2021/11/19 09:38:43;;;;;;;9.33;6.80;;;12.10;99.90;;;;;;4884393;29;20494;-51
2021/11/19 09:41:33;;;;;;;8.00;5.53;;;12.10;99.90;;;;;;4884413;29;20457;-52
2021/11/19 09:44:11;;;;;;;9.53;6.30;;;12.10;99.90;;;;;;4887335;29;20482;-49
2021/11/19 09:47:11;;;;;;;7.27;5.73;;;12.10;99.90;;;;;;4890422;29;20495;-54
2021/11/19 09:50:16;;;;;;;9.13;5.10;;;12.10;99.90;;;;;;4884411;29;20455;-53
2021/11/19 09:53:26;;;;;;;9.67;5.23;;;12.10;99.90;;;;;;4918428;23;20513;-55
2021/11/19 09:56:11;;;;;;;6.07;4.27;;;12.10;99.90;;;;;;4894932;29;20474;-52
2021/11/19 09:58:53;;;;;;;17.63;6.93;;;12.10;99.90;;;;;;4895076;29;20508;-52
2021/11/19 10:04:38;;;;;;;7.43;4.80;;;12.10;99.90;;;;;;4902593;23;20497;-49
2021/11/19 10:07:18;;;;;;;11.90;6.60;;;12.10;99.90;;;;;;4894505;29;20475;-54
2021/11/19 10:09:54;;;;;;;10.50;6.00;;;12.20;99.90;;;;;;4894403;29;20503;-50
2021/11/19 10:12:23;;;;;;;11.37;6.57;;;12.10;99.90;;;;;;4895146;29;20503;-53
2021/11/19 10:14:58;;;;;;;14.47;7.00;;;12.20;99.90;;;;;;4894656;29;20461;-53
2021/11/19 10:17:42;;;;;;;11.50;6.90;;;12.10;99.90;;;;;;4894216;29;20498;-53
2021/11/19 10:20:13;;;;;;;12.00;6.63;;;12.20;99.90;;;;;;4894225;29;20444;-52
2021/11/19 10:22:49;;;;;;;12.77;6.23;;;12.20;99.90;;;;;;4894404;29;20516;-54
2021/11/19 10:25:22;;;;;;;10.23;6.40;;;12.20;99.90;;;;;;4924796;23;20497;-53
2021/11/19 10:27:53;;;;;;;9.67;6.60;;;12.20;99.90;;;;;;4903094;29;20544;-46
2021/11/19 10:30:42;;;;;;;19.43;7.30;;;12.20;99.90;;;;;;4909333;23;20501;-54
2021/11/19 10:33:14;;;;;;;11.20;7.07;;;12.20;99.90;;;;;;4902976;29;20486;-50
2021/11/19 10:35:56;;;;;;;13.60;7.17;;;12.20;99.90;;;;;;4896530;29;20451;-54
2021/11/19 10:38:50;;;;;;;16.47;7.60;;;12.20;99.90;;;;;;4894022;29;20445;-50
2021/11/19 10:41:57;;;;;;;14.23;7.10;;;12.20;99.90;;;;;;4894397;29;20443;-52
2021/11/19 10:44:50;;;;;;;18.10;6.00;;;12.20;99.90;;;;;;4894688;29;20478;-51
2021/11/19 10:47:53;;;;;;;9.93;5.63;;;12.20;99.90;;;;;;4902374;29;20470;-51
2021/11/19 10:50:52;;;;;;;7.13;5.60;;;12.20;99.90;;;;;;4899345;29;20503;-52
2021/11/19 10:53:58;;;;;;;9.93;6.07;;;12.20;99.90;;;;;;4892845;29;20451;-52
2021/11/19 10:56:51;;;;;;;11.00;6.30;;;12.20;99.90;;;;;;4885302;29;20502;-52
2021/11/19 10:59:38;;;;;;;15.03;8.43;;;12.20;99.90;;;;;;4901253;29;20447;-49
2021/11/19 11:02:36;;;;;;;8.67;5.87;;;12.20;99.90;;;;;;4901163;29;20507;-54
2021/11/19 11:05:27;;;;;;;9.70;5.40;;;12.30;99.90;;;;;;4902279;29;20492;-52
2021/11/19 11:08:19;;;;;;;10.50;6.67;;;12.20;99.90;;;;;;4893755;29;20474;-50
2021/11/19 11:10:51;;;;;;;11.80;6.93;;;12.30;99.90;;;;;;4896151;29;20443;-49
2021/11/19 11:13:29;;;;;;;11.60;7.57;;;12.30;99.90;;;;;;4898882;29;20531;-52
2021/11/19 11:16:01;;;;;;;9.23;5.03;;;12.30;99.90;;;;;;4925288;23;20477;-47
2021/11/19 11:18:30;;;;;;;16.50;6.10;;;12.40;99.90;;;;;;4894327;29;20475;-54
2021/11/19 11:21:30;;;;;;;14.70;6.30;;;12.40;99.90;;;;;;4898783;29;20462;-47
2021/11/19 11:24:23;;;;;;;9.37;6.33;;;12.50;99.90;;;;;;4882390;29;20554;-46
2021/11/19 11:26:53;;;;;;;13.07;6.30;;;12.50;99.90;;;;;;4895677;29;20483;-53
2021/11/19 11:29:45;;;;;;;8.83;5.30;;;12.40;99.90;;;;;;4892664;29;20882;-52
2021/11/19 11:32:32;;;;;;;12.00;6.67;;;12.50;99.90;;;;;;4894144;29;20440;-53
2021/11/19 11:35:12;;;;;;;13.10;7.13;;;12.50;99.90;;;;;;4890000;29;20483;-52
2021/11/19 11:37:58;;;;;;;11.00;5.70;;;12.50;99.90;;;;;;4888593;29;20538;-47
2021/11/19 11:40:34;;;;;;;13.47;5.93;;;12.50;99.90;;;;;;4885229;29;20487;-50
2021/11/19 11:43:23;;;;;;;10.60;5.50;;;12.60;99.90;;;;;;4885846;29;20538;-51
2021/11/19 11:45:54;;;;;;;7.57;4.60;;;12.60;99.90;;;;;;4886406;29;20487;-56
2021/11/19 11:48:39;;;;;;;9.63;5.87;;;12.60;99.90;;;;;;4910077;23;20514;-53
2021/11/19 11:51:10;;;;;;;13.30;6.60;;;12.60;99.90;;;;;;4884323;29;20454;-54
2021/11/19 11:53:47;;;;;;;15.47;6.17;;;12.60;99.90;;;;;;4891795;23;20586;-50
2021/11/19 11:56:24;;;;;;;10.13;5.67;;;12.60;99.90;;;;;;4884452;29;20530;-52
2021/11/19 11:59:01;;;;;;;10.30;5.80;;;12.60;99.90;;;;;;4892633;23;20494;-54
2021/11/19 12:01:44;;;;;;;9.30;5.10;;;12.60;99.90;;;;;;4885673;29;20454;-52
2021/11/19 12:04:18;;;;;;;7.57;5.43;;;12.60;99.90;;;;;;4893486;23;20491;-50
2021/11/19 12:06:58;;;;;;;19.00;5.90;;;12.60;99.90;;;;;;4884526;29;20582;-49
2021/11/19 12:09:31;;;;;;;10.83;6.03;;;12.60;99.90;;;;;;4893988;23;20522;-51
2021/11/19 12:12:30;;;;;;;10.97;5.10;;;12.70;99.90;;;;;;4886447;29;20450;-52
2021/11/19 12:15:12;;;;;;;11.17;8.47;;;12.70;99.90;;;;;;4896390;23;20992;-55
2021/11/19 12:17:48;;;;;;;13.03;5.77;;;12.70;99.90;;;;;;4886452;29;20881;-54
2021/11/19 12:20:21;;;;;;;11.10;4.87;;;12.70;99.90;;;;;;4891894;23;20493;-50
2021/11/19 12:22:54;;;;;;;11.10;4.67;;;12.70;99.90;;;;;;4884791;29;20432;-49
2021/11/19 12:25:54;;;;;;;9.87;4.60;;;12.80;99.90;;;;;;4894564;23;20566;-52
2021/11/19 12:28:24;;;;;;;7.20;4.53;;;12.90;99.90;;;;;;4854345;29;20447;-53
2021/11/19 12:30:59;;;;;;;5.13;4.33;;;12.90;99.90;;;;;;4891422;23;20498;-51
2021/11/19 12:33:31;;;;;;;6.80;4.07;;;12.90;99.90;;;;;;4884492;29;20510;-52
2021/11/19 12:36:03;;;;;;;9.13;4.10;;;12.90;99.90;;;;;;4884493;29;20550;-50
2021/11/19 12:38:35;;;;;;;4.70;3.20;;;12.90;99.90;;;;;;4884435;29;20486;-48
2021/11/19 12:41:09;;;;;;;5.10;4.17;;;12.90;99.90;;;;;;4884810;29;20460;-51
2021/11/19 12:44:12;;;;;;;6.53;4.03;;;12.90;99.90;;;;;;4884846;29;20561;-47
2021/11/19 12:47:07;;;;;;;5.67;4.30;;;12.90;99.90;;;;;;4862256;29;20514;-51
2021/11/19 12:49:54;;;;;;;6.30;4.13;;;12.90;99.90;;;;;;4884811;29;20983;-48
2021/11/19 12:52:24;;;;;;;7.37;4.23;;;12.90;99.90;;;;;;4886927;29;20450;-49
2021/11/19 12:55:01;;;;;;;6.33;3.83;;;12.90;99.90;;;;;;4888349;29;20507;-48
2021/11/19 12:57:54;;;;;;;6.47;4.43;;;12.90;99.90;;;;;;4884093;29;20442;-50
2021/11/19 13:00:39;;;;;;;7.17;4.40;;;12.90;99.90;;;;;;4884136;29;20486;-50
2021/11/19 13:03:21;;;;;;;7.20;3.40;;;12.90;99.90;;;;;;4884075;29;20527;-49
2021/11/19 13:06:09;;;;;;;6.47;4.87;;;12.80;99.90;;;;;;4884266;29;20479;-46
2021/11/19 13:08:41;;;;;;;8.10;4.93;;;12.80;99.90;;;;;;4884136;29;20789;-48
2021/11/19 13:11:45;;;;;;;6.43;4.40;;;12.90;99.90;;;;;;4890907;23;20578;-51
2021/11/19 13:14:37;;;;;;;11.07;5.50;;;12.80;99.90;;;;;;4882192;29;20499;-50
2021/11/19 13:17:38;;;;;;;6.47;4.30;;;12.80;99.90;;;;;;4890481;23;20852;-47
2021/11/19 13:20:33;;;;;;;9.93;4.10;;;12.70;99.90;;;;;;4884025;29;20447;-50
2021/11/19 13:23:43;;;;;;;8.20;3.80;;;12.80;99.90;;;;;;4891469;23;20490;-50
2021/11/19 13:28:53;;;;;;;6.33;4.87;;;12.80;99.90;;;;;;4889597;23;20971;-54
2021/11/19 13:34:39;;;;;;;5.40;3.50;;;12.90;99.90;;;;;;4889490;23;20495;-48